createdAt,value
2023-01-26T00:01:31.145Z,36.03
2023-01-26T00:03:58.142Z,38.83
2023-01-26T00:06:25.698Z,39.50
2023-01-26T00:08:57.115Z,39.38
2023-01-26T00:11:27.083Z,37.90
2023-01-26T00:13:56.583Z,38.95
2023-01-26T00:16:24.433Z,38.35
2023-01-26T00:18:51.332Z,38.17
2023-01-26T00:21:23.565Z,41.60
2023-01-26T00:23:51.731Z,37.63
2023-01-26T00:26:22.944Z,40.35
2023-01-26T00:28:50.828Z,39.35
2023-01-26T00:31:24.011Z,39.80
2023-01-26T00:33:51.866Z,40.75
2023-01-26T00:36:18.943Z,38.92
2023-01-26T00:38:46.139Z,39.50
2023-01-26T00:41:31.389Z,38.22
2023-01-26T00:43:58.152Z,41.03
2023-01-26T00:46:25.009Z,40.13
2023-01-26T00:48:51.856Z,42.55
2023-01-26T00:51:18.684Z,40.90
2023-01-26T00:53:45.435Z,39.97
2023-01-26T00:56:14.638Z,42.13
2023-01-26T00:58:42.182Z,40.92
2023-01-26T01:01:09.008Z,43.38
2023-01-26T01:03:35.860Z,42.30
2023-01-26T01:06:02.651Z,39.85
2023-01-26T01:08:29.448Z,42.05
2023-01-26T01:11:11.330Z,43.63
2023-01-26T01:13:39.078Z,41.00
2023-01-26T01:16:12.474Z,41.40
2023-01-26T01:18:39.688Z,42.40
2023-01-26T01:21:12.915Z,42.38
2023-01-26T01:23:39.971Z,40.30
2023-01-26T01:26:07.390Z,41.72
2023-01-26T01:28:35.442Z,42.00
2023-01-26T01:31:12.064Z,42.42
2023-01-26T01:33:39.217Z,39.38
2023-01-26T01:36:10.478Z,43.00
2023-01-26T01:38:37.298Z,43.55
2023-01-26T01:41:04.451Z,42.90
2023-01-26T01:43:31.303Z,40.22
2023-01-26T01:46:00.898Z,42.97
2023-01-26T01:48:52.213Z,42.50
2023-01-26T01:51:31.352Z,42.10
2023-01-26T01:54:04.600Z,43.45
2023-01-26T01:56:33.558Z,43.20
2023-01-26T01:59:02.805Z,43.70
2023-01-26T02:01:30.238Z,44.30
2023-01-26T02:04:01.263Z,45.08
2023-01-26T02:06:40.979Z,43.55
2023-01-26T02:09:29.255Z,44.83
2023-01-26T02:11:57.764Z,43.53
2023-01-26T02:14:25.538Z,42.78
2023-01-26T02:16:52.306Z,45.35
2023-01-26T02:19:52.535Z,44.33
2023-01-26T02:22:51.722Z,43.45
2023-01-26T02:25:58.131Z,40.63
2023-01-26T02:28:27.150Z,43.03
2023-01-26T02:30:56.163Z,42.10
2023-01-26T02:33:29.350Z,45.03
2023-01-26T02:35:56.178Z,46.45
2023-01-26T02:38:26.109Z,41.95
2023-01-26T02:41:03.359Z,40.85
2023-01-26T02:43:30.274Z,40.15
2023-01-26T02:45:57.090Z,39.75
2023-01-26T02:48:43.413Z,38.63
2023-01-26T02:51:10.627Z,40.58
2023-01-26T02:53:37.383Z,40.28
2023-01-26T02:56:04.325Z,40.67
2023-01-26T02:58:31.091Z,39.60
2023-01-26T03:00:58.001Z,38.72
2023-01-26T03:03:41.692Z,39.75
2023-01-26T03:06:12.898Z,40.28
2023-01-26T03:08:40.033Z,39.78
2023-01-26T03:11:09.042Z,40.10
2023-01-26T03:13:36.158Z,40.30
2023-01-26T03:16:08.226Z,39.55
2023-01-26T03:18:55.004Z,38.33
2023-01-26T03:21:40.203Z,36.30
2023-01-26T03:24:31.907Z,39.75
2023-01-26T03:27:17.794Z,40.17
2023-01-26T03:29:45.413Z,40.88
2023-01-26T03:32:12.521Z,38.50
2023-01-26T03:34:39.284Z,39.38
2023-01-26T03:37:06.447Z,38.65
2023-01-26T03:39:51.686Z,37.47
2023-01-26T03:42:36.778Z,38.83
2023-01-26T03:45:23.119Z,36.90
2023-01-26T03:48:08.273Z,36.78
2023-01-26T03:50:53.655Z,37.42
2023-01-26T03:53:42.314Z,38.65
2023-01-26T03:56:22.176Z,34.45
2023-01-26T03:58:55.446Z,37.58
2023-01-26T04:01:28.894Z,37.72
2023-01-26T04:04:15.618Z,39.75
2023-01-26T04:07:03.724Z,37.70
2023-01-26T04:09:31.840Z,37.08
2023-01-26T04:11:59.145Z,38.33
2023-01-26T04:14:49.824Z,35.58
2023-01-26T04:17:37.355Z,36.38
2023-01-26T04:20:25.050Z,36.17
2023-01-26T04:22:52.623Z,33.15
2023-01-26T04:25:21.816Z,35.70
2023-01-26T04:27:48.624Z,34.65
2023-01-26T04:30:17.305Z,35.45
2023-01-26T04:32:46.050Z,35.90
2023-01-26T04:35:12.959Z,34.10
2023-01-26T04:37:39.877Z,35.25
2023-01-26T04:40:07.974Z,34.22
2023-01-26T04:42:35.489Z,33.85
2023-01-26T04:45:02.256Z,33.72
2023-01-26T04:47:29.564Z,34.63
2023-01-26T04:49:56.450Z,32.83
2023-01-26T04:52:23.311Z,35.85
2023-01-26T04:54:50.812Z,32.75
2023-01-26T04:57:20.513Z,33.72
2023-01-26T04:59:47.315Z,33.05
2023-01-26T05:02:14.092Z,32.75
2023-01-26T05:04:40.886Z,34.08
2023-01-26T05:07:07.666Z,33.97
2023-01-26T05:09:34.439Z,34.97
2023-01-26T05:12:21.218Z,33.85
2023-01-26T05:14:47.992Z,33.45
2023-01-26T05:17:14.746Z,35.38
2023-01-26T05:19:41.561Z,34.80
2023-01-26T05:22:08.506Z,33.60
2023-01-26T05:24:35.447Z,34.13
2023-01-26T05:27:20.641Z,35.30
2023-01-26T05:29:48.496Z,35.75
2023-01-26T05:32:15.363Z,34.63
2023-01-26T05:34:42.148Z,35.97
2023-01-26T05:37:08.952Z,37.10
2023-01-26T05:39:35.752Z,35.47
2023-01-26T05:42:02.538Z,36.08
2023-01-26T05:44:29.709Z,35.70
2023-01-26T05:46:56.563Z,36.53
2023-01-26T05:49:23.348Z,33.50
2023-01-26T05:51:50.129Z,36.55
2023-01-26T05:54:16.908Z,34.30
2023-01-26T05:56:43.733Z,34.92
2023-01-26T05:59:10.597Z,36.42
2023-01-26T06:02:40.101Z,33.63
2023-01-26T06:05:07.929Z,33.80
2023-01-26T06:07:34.889Z,35.05
2023-01-26T06:10:01.705Z,33.83
2023-01-26T06:12:31.550Z,36.83
2023-01-26T06:14:58.749Z,34.65
2023-01-26T06:17:25.596Z,33.80
2023-01-26T06:19:52.372Z,36.20
2023-01-26T06:22:19.813Z,36.08
2023-01-26T06:24:46.958Z,35.67
2023-01-26T06:27:16.658Z,36.25
2023-01-26T06:29:44.499Z,34.75
2023-01-26T06:32:12.817Z,33.90
2023-01-26T06:34:40.403Z,34.63
2023-01-26T06:37:07.635Z,33.15
2023-01-26T06:39:34.451Z,36.60
2023-01-26T06:42:02.181Z,35.78
2023-01-26T06:44:28.971Z,36.90
2023-01-26T06:46:55.756Z,33.22
2023-01-26T06:49:22.532Z,32.38
2023-01-26T06:52:28.225Z,31.30
2023-01-26T06:54:58.980Z,33.72
2023-01-26T06:57:26.210Z,33.58
2023-01-26T06:59:52.984Z,36.20
2023-01-26T07:02:22.333Z,36.33
2023-01-26T07:04:50.434Z,38.42
2023-01-26T07:07:17.289Z,36.60
2023-01-26T07:09:44.101Z,32.70
2023-01-26T07:12:10.873Z,33.15
2023-01-26T07:14:37.709Z,36.17
2023-01-26T07:17:04.679Z,36.10
2023-01-26T07:19:33.181Z,38.15
2023-01-26T07:22:00.981Z,34.55
2023-01-26T07:24:28.169Z,35.67
2023-01-26T07:26:55.773Z,34.97
2023-01-26T07:29:22.785Z,35.53
2023-01-26T07:31:49.789Z,34.38
2023-01-26T07:34:16.612Z,35.08
2023-01-26T07:36:43.472Z,31.52
2023-01-26T07:39:10.324Z,32.22
2023-01-26T07:41:37.090Z,33.85
2023-01-26T07:44:07.733Z,33.80
2023-01-26T07:46:34.612Z,33.53
2023-01-26T07:49:01.383Z,31.27
2023-01-26T07:51:28.134Z,31.73
2023-01-26T07:53:54.898Z,31.58
2023-01-26T07:56:21.787Z,31.98
2023-01-26T07:58:53.384Z,32.83
2023-01-26T08:01:21.285Z,32.42
2023-01-26T08:03:51.477Z,29.23
2023-01-26T08:06:18.554Z,29.38
2023-01-26T08:08:50.973Z,31.35
2023-01-26T08:11:19.433Z,32.33
2023-01-26T08:13:46.280Z,31.90
2023-01-26T08:16:13.356Z,31.48
2023-01-26T08:18:46.161Z,32.03
2023-01-26T08:21:15.537Z,31.33
2023-01-26T08:23:42.701Z,33.30
2023-01-26T08:26:13.091Z,33.28
2023-01-26T08:28:40.677Z,28.77
2023-01-26T08:31:15.188Z,31.05
2023-01-26T08:33:42.835Z,31.63
2023-01-26T08:36:13.170Z,30.33
2023-01-26T08:38:40.028Z,34.30
2023-01-26T08:41:07.239Z,33.33
2023-01-26T08:43:34.741Z,33.95
2023-01-26T08:46:01.977Z,31.92
2023-01-26T08:48:31.064Z,33.22
2023-01-26T08:51:00.403Z,31.23
2023-01-26T08:53:30.498Z,34.38
2023-01-26T08:55:57.271Z,33.17
2023-01-26T08:58:24.106Z,34.42
2023-01-26T09:00:50.950Z,32.45
2023-01-26T09:03:17.982Z,32.22
2023-01-26T09:05:44.784Z,29.63
2023-01-26T09:08:13.912Z,30.92
2023-01-26T09:10:40.746Z,31.27
2023-01-26T09:13:07.589Z,32.53
2023-01-26T09:15:34.344Z,30.20
2023-01-26T09:18:01.991Z,32.40
2023-01-26T09:20:28.791Z,31.08
2023-01-26T09:22:55.569Z,31.40
2023-01-26T09:25:22.412Z,31.88
2023-01-26T09:27:49.154Z,34.35
2023-01-26T09:30:16.744Z,33.03
2023-01-26T09:32:43.764Z,33.20
2023-01-26T09:35:14.255Z,33.83
2023-01-26T09:37:43.879Z,34.78
2023-01-26T09:40:23.018Z,31.58
2023-01-26T09:43:25.503Z,33.25
2023-01-26T09:46:16.907Z,30.75
2023-01-26T09:48:57.181Z,30.15
2023-01-26T09:51:37.934Z,29.73
2023-01-26T09:54:28.416Z,29.17
2023-01-26T09:56:56.250Z,28.83
2023-01-26T09:59:44.430Z,29.27
2023-01-26T10:03:02.485Z,26.58
2023-01-26T10:06:01.380Z,25.98
2023-01-26T10:08:28.374Z,26.20
2023-01-26T10:11:02.603Z,27.55
2023-01-26T10:13:30.488Z,28.52
2023-01-26T10:16:03.005Z,29.30
2023-01-26T10:18:37.471Z,26.30
2023-01-26T10:21:07.480Z,26.10
2023-01-26T10:23:35.975Z,27.23
2023-01-26T10:26:16.634Z,27.00
2023-01-26T10:28:46.268Z,25.05
2023-01-26T10:31:17.614Z,23.50
2023-01-26T10:33:57.907Z,25.67
2023-01-26T10:36:25.367Z,22.35
2023-01-26T10:38:52.713Z,22.85
2023-01-26T10:41:26.546Z,23.45
2023-01-26T10:43:58.144Z,24.42
2023-01-26T10:46:45.245Z,23.55
2023-01-26T10:49:16.660Z,24.05
2023-01-26T10:51:47.102Z,25.40
2023-01-26T10:54:20.254Z,24.10
2023-01-26T10:57:17.492Z,24.53
2023-01-26T10:59:57.252Z,25.42
2023-01-26T11:02:30.575Z,23.30
2023-01-26T11:05:09.765Z,25.13
2023-01-26T11:07:43.070Z,22.52
2023-01-26T11:10:26.994Z,21.57
2023-01-26T11:13:21.344Z,24.15
2023-01-26T11:16:08.953Z,23.15
2023-01-26T11:18:42.793Z,22.88
2023-01-26T11:21:23.909Z,22.63
2023-01-26T11:24:08.521Z,23.05
2023-01-26T11:27:14.027Z,23.55
2023-01-26T11:30:24.141Z,23.35
2023-01-26T11:33:04.168Z,21.45
2023-01-26T11:35:54.333Z,22.60
2023-01-26T11:38:39.585Z,22.27
2023-01-26T11:41:13.872Z,22.30
2023-01-26T11:44:14.593Z,20.95
2023-01-26T11:47:36.611Z,21.30
2023-01-26T11:50:35.574Z,20.92
2023-01-26T11:53:34.047Z,20.48
2023-01-26T11:56:25.834Z,20.05
2023-01-26T11:59:06.632Z,21.15
2023-01-26T12:01:43.645Z,22.10
2023-01-26T12:04:20.228Z,24.13
2023-01-26T12:06:55.381Z,20.95
2023-01-26T12:09:46.811Z,21.73
2023-01-26T12:12:38.092Z,20.77
2023-01-26T12:15:13.798Z,20.48
2023-01-26T12:18:02.211Z,21.85
2023-01-26T12:20:50.911Z,21.67
2023-01-26T12:23:28.017Z,20.80
2023-01-26T12:26:20.675Z,21.13
2023-01-26T12:29:05.922Z,20.80
2023-01-26T12:31:44.675Z,20.00
2023-01-26T12:34:13.551Z,21.35
2023-01-26T12:37:21.211Z,19.73
2023-01-26T12:40:16.304Z,19.70
2023-01-26T12:42:58.588Z,21.80
2023-01-26T12:45:34.398Z,20.52
2023-01-26T12:48:24.281Z,20.90
2023-01-26T12:51:01.397Z,20.42
2023-01-26T12:53:39.999Z,21.10
2023-01-26T12:56:28.878Z,21.45
2023-01-26T12:58:58.564Z,19.40
2023-01-26T13:01:38.170Z,20.73
2023-01-26T13:04:13.108Z,21.65
2023-01-26T13:06:40.298Z,19.23
2023-01-26T13:09:23.476Z,20.70
2023-01-26T13:11:59.891Z,20.55
2023-01-26T13:14:39.934Z,19.05
2023-01-26T13:17:15.787Z,21.48
2023-01-26T13:19:42.455Z,20.83
2023-01-26T13:22:24.096Z,19.30
2023-01-26T13:24:57.171Z,18.98
2023-01-26T13:27:45.831Z,18.65
2023-01-26T13:30:31.112Z,18.95
2023-01-26T13:33:24.637Z,18.77
2023-01-26T13:35:54.518Z,19.73
2023-01-26T13:38:43.339Z,19.10
2023-01-26T13:41:19.258Z,18.65
2023-01-26T13:44:10.328Z,19.52
2023-01-26T13:46:45.773Z,17.98
2023-01-26T13:49:41.348Z,17.65
2023-01-26T13:52:26.521Z,17.77
2023-01-26T13:54:57.631Z,17.75
2023-01-26T13:57:27.974Z,17.90
2023-01-26T14:00:01.986Z,19.15
2023-01-26T14:02:34.960Z,17.65
2023-01-26T14:05:03.295Z,16.70
2023-01-26T14:07:41.852Z,16.23
2023-01-26T14:10:18.667Z,17.08
2023-01-26T14:12:58.684Z,16.92
2023-01-26T14:15:29.088Z,17.23
2023-01-26T14:18:05.150Z,16.40
2023-01-26T14:20:39.808Z,16.98
2023-01-26T14:23:14.958Z,17.30
2023-01-26T14:26:04.877Z,17.23
2023-01-26T14:28:37.001Z,16.58
2023-01-26T14:31:24.955Z,16.65
2023-01-26T14:33:58.674Z,17.38
2023-01-26T14:36:33.044Z,16.25
2023-01-26T14:39:01.066Z,15.05
2023-01-26T14:41:34.260Z,15.88
2023-01-26T14:44:06.028Z,15.33
2023-01-26T14:47:15.015Z,15.07
2023-01-26T14:49:49.431Z,14.65
2023-01-26T14:52:26.195Z,13.90
2023-01-26T14:54:56.677Z,15.93
2023-01-26T14:57:27.505Z,15.52
2023-01-26T14:59:57.493Z,15.15
2023-01-26T15:02:44.577Z,15.32
2023-01-26T15:05:24.287Z,14.82
2023-01-26T15:08:00.583Z,14.70
2023-01-26T15:10:41.080Z,12.98
2023-01-26T15:13:10.768Z,14.07
2023-01-26T15:15:41.093Z,14.85
2023-01-26T15:18:14.060Z,13.90
2023-01-26T15:21:15.287Z,14.50
2023-01-26T15:23:53.096Z,15.98
2023-01-26T15:26:31.184Z,17.08
2023-01-26T15:29:01.272Z,15.88
2023-01-26T15:31:41.688Z,16.42
2023-01-26T15:34:32.565Z,16.27
2023-01-26T15:37:00.334Z,15.80
2023-01-26T15:39:27.610Z,17.52
2023-01-26T15:42:16.263Z,17.50
2023-01-26T15:44:43.086Z,17.80
2023-01-26T15:47:11.962Z,18.00
2023-01-26T15:49:39.287Z,18.27
2023-01-26T15:52:20.516Z,18.27
2023-01-26T15:54:47.338Z,18.92
2023-01-26T15:57:14.303Z,18.98
2023-01-26T15:59:41.263Z,18.23
2023-01-26T16:02:15.687Z,17.65
2023-01-26T16:04:43.373Z,18.40
2023-01-26T16:07:19.230Z,17.88
2023-01-26T16:09:48.154Z,19.05
2023-01-26T16:12:31.565Z,19.35
2023-01-26T16:14:59.514Z,19.65
2023-01-26T16:17:26.492Z,20.83
2023-01-26T16:19:53.289Z,19.63
2023-01-26T16:22:20.267Z,19.40
2023-01-26T16:24:47.286Z,21.35
2023-01-26T16:27:14.060Z,20.55
2023-01-26T16:29:40.840Z,21.80
2023-01-26T16:32:28.919Z,19.45
2023-01-26T16:34:55.807Z,20.40
2023-01-26T16:37:22.671Z,21.73
2023-01-26T16:39:49.449Z,20.13
2023-01-26T16:42:21.086Z,22.13
2023-01-26T16:44:48.176Z,19.92
2023-01-26T16:47:15.045Z,19.40
2023-01-26T16:49:41.837Z,19.05
2023-01-26T16:52:09.853Z,19.27
2023-01-26T16:54:36.868Z,20.27
2023-01-26T16:57:03.852Z,18.67
2023-01-26T16:59:30.681Z,19.73
2023-01-26T17:01:57.643Z,19.98
2023-01-26T17:04:24.463Z,23.33
2023-01-26T17:06:51.306Z,20.50
2023-01-26T17:09:18.140Z,22.15
2023-01-26T17:11:44.915Z,21.90
2023-01-26T17:14:12.736Z,22.45
2023-01-26T17:16:45.459Z,27.40
2023-01-26T17:19:12.329Z,26.27
2023-01-26T17:21:39.095Z,21.90
2023-01-26T17:24:07.058Z,23.33
2023-01-26T17:26:33.890Z,20.88
2023-01-26T17:29:00.751Z,19.05
2023-01-26T17:31:28.551Z,20.88
2023-01-26T17:33:55.744Z,21.55
2023-01-26T17:36:22.570Z,22.02
2023-01-26T17:38:49.630Z,23.15
2023-01-26T17:41:21.143Z,24.25
2023-01-26T17:43:51.281Z,24.95
2023-01-26T17:46:20.262Z,26.02
2023-01-26T17:48:48.265Z,25.55
2023-01-26T17:51:19.301Z,24.15
2023-01-26T17:53:49.465Z,23.58
2023-01-26T17:56:19.363Z,21.60
2023-01-26T17:58:52.900Z,22.00
2023-01-26T18:01:25.056Z,19.02
2023-01-26T18:03:53.766Z,18.40
2023-01-26T18:06:21.317Z,19.05
2023-01-26T18:08:48.481Z,18.55
2023-01-26T18:11:16.874Z,18.55
2023-01-26T18:13:44.001Z,18.42
2023-01-26T18:16:15.851Z,17.70
2023-01-26T18:18:43.207Z,18.33
2023-01-26T18:21:23.655Z,17.35
2023-01-26T18:23:54.183Z,17.02
2023-01-26T18:26:24.184Z,17.50
2023-01-26T18:28:51.615Z,16.73
2023-01-26T18:31:22.259Z,17.13
2023-01-26T18:33:49.164Z,18.27
2023-01-26T18:36:19.722Z,18.67
2023-01-26T18:38:59.200Z,18.85
2023-01-26T18:41:27.819Z,18.45
2023-01-26T18:43:57.791Z,18.30
2023-01-26T18:46:26.106Z,18.95
2023-01-26T18:48:54.675Z,18.30
2023-01-26T18:51:22.590Z,18.95
2023-01-26T18:53:49.547Z,17.40
2023-01-26T18:56:17.174Z,19.58
2023-01-26T18:58:44.407Z,19.15
2023-01-26T19:01:14.786Z,17.95
2023-01-26T19:03:47.150Z,17.83
2023-01-26T19:06:19.689Z,15.32
2023-01-26T19:08:55.290Z,18.08
2023-01-26T19:11:22.082Z,17.55
2023-01-26T19:13:48.883Z,17.65
2023-01-26T19:16:15.691Z,17.45
2023-01-26T19:18:42.459Z,17.25
2023-01-26T19:21:09.996Z,17.10
2023-01-26T19:23:39.789Z,16.35
2023-01-26T19:26:15.297Z,16.73
2023-01-26T19:28:42.277Z,16.23
2023-01-26T19:31:10.315Z,17.25
2023-01-26T19:33:37.996Z,17.77
2023-01-26T19:36:06.862Z,18.30
2023-01-26T19:38:34.638Z,17.63
2023-01-26T19:41:02.406Z,16.77
2023-01-26T19:43:29.523Z,18.20
2023-01-26T19:45:57.149Z,16.55
2023-01-26T19:48:33.019Z,18.55
2023-01-26T19:51:21.824Z,18.20
2023-01-26T19:53:53.454Z,15.35
2023-01-26T19:56:29.691Z,17.83
2023-01-26T19:59:00.260Z,19.80
2023-01-26T20:01:28.884Z,18.67
2023-01-26T20:04:01.957Z,20.35
2023-01-26T20:06:31.828Z,18.98
2023-01-26T20:08:59.743Z,19.73
2023-01-26T20:11:29.367Z,19.77
2023-01-26T20:13:58.003Z,19.58
2023-01-26T20:16:27.776Z,18.95
2023-01-26T20:18:59.022Z,19.75
2023-01-26T20:21:27.098Z,18.55
2023-01-26T20:23:55.714Z,19.35
2023-01-26T20:26:25.536Z,20.00
2023-01-26T20:28:53.742Z,19.67
2023-01-26T20:31:24.428Z,20.73
2023-01-26T20:33:54.005Z,20.60
2023-01-26T20:36:25.750Z,19.42
2023-01-26T20:38:53.219Z,19.30
2023-01-26T20:41:25.220Z,19.23
2023-01-26T20:44:00.864Z,20.17
2023-01-26T20:46:38.539Z,21.08
2023-01-26T20:49:08.491Z,20.17
2023-01-26T20:51:38.049Z,20.40
2023-01-26T20:54:06.832Z,18.48
2023-01-26T20:56:33.869Z,18.80
2023-01-26T20:59:02.072Z,19.55
2023-01-26T21:01:28.999Z,19.00
2023-01-26T21:03:55.843Z,20.58
2023-01-26T21:06:24.088Z,19.30
2023-01-26T21:08:55.220Z,19.50
2023-01-26T21:11:24.939Z,19.40
2023-01-26T21:13:52.081Z,19.60
2023-01-26T21:16:19.818Z,20.50
2023-01-26T21:18:46.664Z,19.95
2023-01-26T21:21:17.768Z,18.45
2023-01-26T21:23:45.815Z,21.10
2023-01-26T21:26:16.163Z,21.05
2023-01-26T21:28:43.184Z,21.52
2023-01-26T21:31:14.936Z,20.15
2023-01-26T21:33:44.978Z,19.05
2023-01-26T21:36:15.427Z,17.88
2023-01-26T21:38:45.373Z,19.70
2023-01-26T21:41:35.065Z,19.42
2023-01-26T21:44:11.922Z,18.15
2023-01-26T21:46:38.743Z,18.50
2023-01-26T21:49:06.450Z,20.42
2023-01-26T21:51:52.237Z,18.77
2023-01-26T21:54:19.113Z,18.42
2023-01-26T21:56:46.003Z,18.50
2023-01-26T21:59:15.371Z,18.13
2023-01-26T22:01:49.572Z,18.83
2023-01-26T22:04:36.620Z,17.92
2023-01-26T22:07:03.414Z,18.90
2023-01-26T22:09:30.452Z,19.60
2023-01-26T22:11:57.223Z,17.45
2023-01-26T22:14:27.485Z,18.08
2023-01-26T22:16:54.292Z,18.90
2023-01-26T22:19:21.048Z,17.42
2023-01-26T22:21:47.989Z,17.13
2023-01-26T22:24:14.997Z,18.67
2023-01-26T22:26:41.884Z,17.75
2023-01-26T22:29:11.520Z,17.05
2023-01-26T22:31:38.330Z,19.15
2023-01-26T22:34:05.318Z,16.92
2023-01-26T22:36:33.229Z,17.95
2023-01-26T22:39:00.539Z,17.88
2023-01-26T22:41:30.326Z,16.65
2023-01-26T22:43:59.654Z,18.48
2023-01-26T22:46:29.174Z,18.88
2023-01-26T22:48:57.489Z,17.05
2023-01-26T22:51:30.343Z,17.45
2023-01-26T22:53:59.081Z,18.35
2023-01-26T22:56:27.108Z,18.15
2023-01-26T22:59:00.465Z,20.30
2023-01-26T23:01:30.118Z,18.98
2023-01-26T23:03:58.874Z,18.63
2023-01-26T23:06:26.503Z,20.00
2023-01-26T23:08:53.777Z,18.42
2023-01-26T23:11:27.552Z,18.20
2023-01-26T23:13:56.461Z,20.63
2023-01-26T23:16:24.330Z,18.80
2023-01-26T23:18:57.020Z,19.48
2023-01-26T23:21:25.661Z,19.42
2023-01-26T23:23:52.500Z,19.10
2023-01-26T23:26:20.407Z,19.10
2023-01-26T23:28:47.428Z,18.92
2023-01-26T23:31:17.916Z,20.52
2023-01-26T23:33:50.544Z,18.40
2023-01-26T23:36:17.332Z,18.35
2023-01-26T23:38:45.630Z,17.42
2023-01-26T23:41:12.740Z,19.00
2023-01-26T23:43:39.640Z,17.83
2023-01-26T23:46:07.753Z,19.45
2023-01-26T23:48:34.661Z,18.45
2023-01-26T23:51:09.545Z,20.45
2023-01-26T23:53:36.778Z,18.35
2023-01-26T23:56:09.269Z,20.45
2023-01-26T23:58:39.988Z,18.23
